Latest Weather Observations for Banana Bank

IDQ60901

Issued at 6:41 am EST Saturday 19 September 2020 (issued every 10 minutes, with the page automatically refreshed every 10 minutes)

About weather observations | Map of Brisbane area stations | Latest observations for Brisbane area | Other Formats
Station Details ID: 040925 Name: BANANA BANK NORTH BEACON Lat: -27.53 Lon: 153.33 Height: 7.0 m
Data from the previous 72 hours. | See also: Recent months at Banana Bank
Date/Time
EST
Temp
°C
App
Temp
°C
Dew
Point
°C
Rel
Hum
%
Delta-T
°C
Wind Press
QNH
hPa
Press
MSL
hPa
Rain since
9am
mm
Dir  Spd
km/h
Gust
km/h
Spd
kts
Gust
kts
19/06:30am - - - - - ESE 13 15 7 8 - - -
19/06:00am - - - - - E 13 17 7 9 - - -
19/05:30am - - - - - E 15 17 8 9 - - -
19/05:00am - - - - - E 17 19 9 10 - - -
19/04:30am - - - - - E 15 19 8 10 - - -
19/04:00am - - - - - E 13 17 7 9 - - -
19/03:30am - - - - - E 11 13 6 7 - - -
19/03:00am - - - - - E 17 19 9 10 - - -
19/02:30am - - - - - E 11 13 6 7 - - -
19/02:00am - - - - - ESE 11 13 6 7 - - -
19/01:30am - - - - - ESE 9 13 5 7 - - -
19/01:00am - - - - - E 11 15 6 8 - - -
19/12:30am - - - - - ESE 19 33 10 18 - - -
19/12:00am - - - - - SSE 11 13 6 7 - - -
 
Date/Time
EST
Temp
°C
App
Temp
°C
Dew
Point
°C
Rel
Hum
%
Delta-T
°C
Wind Press
QNH
hPa
Press
MSL
hPa
Rain since
9am
mm
Dir  Spd
km/h
Gust
km/h
Spd
kts
Gust
kts
18/11:30pm - - - - - SE 9 13 5 7 - - -
18/11:00pm - - - - - SE 11 15 6 8 - - -
18/10:30pm - - - - - SSE 13 17 7 9 - - -
18/10:00pm - - - - - SE 17 20 9 11 - - -
18/09:30pm - - - - - SE 19 22 10 12 - - -
18/09:00pm - - - - - E 11 13 6 7 - - -
18/08:30pm - - - - - E 7 9 4 5 - - -
18/08:00pm - - - - - SE 11 13 6 7 - - -
18/07:30pm - - - - - ESE 9 11 5 6 - - -
18/07:00pm - - - - - SSE 13 17 7 9 - - -
18/06:30pm - - - - - SSE 15 19 8 10 - - -
18/06:00pm - - - - - SE 26 39 14 21 - - -
18/05:52pm - - - - - SE 26 39 14 21 - - -
18/05:30pm - - - - - ESE 13 17 7 9 - - -
18/05:00pm - - - - - SE 15 24 8 13 - - -
18/04:30pm - - - - - ESE 15 20 8 11 - - -
18/04:00pm - - - - - ESE 17 19 9 10 - - -
18/03:30pm - - - - - ESE 24 35 13 19 - - -
18/03:00pm - - - - - ESE 20 24 11 13 - - -
18/02:30pm - - - - - ESE 22 26 12 14 - - -
18/02:00pm - - - - - ESE 22 28 12 15 - - -
18/01:30pm - - - - - ESE 24 30 13 16 - - -
18/01:00pm - - - - - ESE 24 30 13 16 - - -
18/12:30pm - - - - - ESE 22 28 12 15 - - -
18/12:00pm - - - - - ESE 20 28 11 15 - - -
18/11:30am - - - - - SE 22 28 12 15 - - -
18/11:00am - - - - - SE 22 26 12 14 - - -
18/10:30am - - - - - SE 19 24 10 13 - - -
18/10:00am - - - - - ESE 19 20 10 11 - - -
18/09:30am - - - - - SE 17 20 9 11 - - -
18/09:00am - - - - - SE 17 19 9 10 - - -
18/08:30am - - - - - S 9 13 5 7 - - -
18/08:00am - - - - - SSW 13 15 7 8 - - -
18/07:30am - - - - - S 11 11 6 6 - - -
18/07:00am - - - - - S 9 13 5 7 - - -
18/06:30am - - - - - SSE 11 13 6 7 - - -
18/06:00am - - - - - SSE 13 15 7 8 - - -
18/05:30am - - - - - SSE 13 15 7 8 - - -
18/05:00am - - - - - SSE 11 13 6 7 - - -
18/04:30am - - - - - SSE 11 13 6 7 - - -
18/04:00am - - - - - SSE 11 13 6 7 - - -
18/03:30am - - - - - S 9 11 5 6 - - -
18/03:00am - - - - - S 11 11 6 6 - - -
18/02:30am - - - - - SSW 9 11 5 6 - - -
18/02:00am - - - - - SSW 9 11 5 6 - - -
18/01:30am - - - - - SSW 9 9 5 5 - - -
18/01:00am - - - - - SSW 9 11 5 6 - - -
18/12:30am - - - - - SSW 7 9 4 5 - - -
18/12:00am - - - - - SSW 9 13 5 7 - - -
 
Date/Time
EST
Temp
°C
App
Temp
°C
Dew
Point
°C
Rel
Hum
%
Delta-T
°C
Wind Press
QNH
hPa
Press
MSL
hPa
Rain since
9am
mm
Dir  Spd
km/h
Gust
km/h
Spd
kts
Gust
kts
17/11:30pm - - - - - CALM 0 0 0 0 - - -
17/11:00pm - - - - - CALM 0 0 0 0 - - -
17/10:30pm - - - - - ESE 4 6 2 3 - - -
17/10:00pm - - - - - SE 4 6 2 3 - - -
17/09:30pm - - - - - CALM 0 0 0 0 - - -
17/09:00pm - - - - - E 2 6 1 3 - - -
17/08:30pm - - - - - E 4 4 2 2 - - -
17/08:00pm - - - - - ENE 6 7 3 4 - - -
17/07:30pm - - - - - ENE 9 11 5 6 - - -
17/07:00pm - - - - - NE 13 19 7 10 - - -
17/06:30pm - - - - - NE 15 19 8 10 - - -
17/06:00pm - - - - - NE 17 19 9 10 - - -
17/05:30pm - - - - - NE 19 22 10 12 - - -
17/05:00pm - - - - - ENE 15 19 8 10 - - -
17/04:30pm - - - - - ENE 17 20 9 11 - - -
17/04:00pm - - - - - ENE 19 22 10 12 - - -
17/03:30pm - - - - - ENE 19 20 10 11 - - -
17/03:00pm - - - - - NE 11 13 6 7 - - -
17/02:30pm - - - - - NE 9 11 5 6 - - -
17/02:00pm - - - - - ENE 13 15 7 8 - - -
17/01:30pm - - - - - ENE 15 17 8 9 - - -
17/01:00pm - - - - - NE 6 9 3 5 - - -
17/12:30pm - - - - - N 11 11 6 6 - - -
17/12:00pm - - - - - N 9 11 5 6 - - -
17/11:30am - - - - - N 7 9 4 5 - - -
17/11:00am - - - - - NNW 7 9 4 5 - - -
17/10:30am - - - - - CALM 0 0 0 0 - - -
17/10:00am - - - - - CALM 0 0 0 0 - - -
17/09:30am - - - - - ESE 6 6 3 3 - - -
17/09:00am - - - - - ESE 6 7 3 4 - - -
17/08:30am - - - - - SSE 6 6 3 3 - - -
17/08:00am - - - - - S 7 7 4 4 - - -
17/07:30am - - - - - SSW 7 9 4 5 - - -
17/07:00am - - - - - SSW 7 9 4 5 - - -
17/06:30am - - - - - S 6 6 3 3 - - -
17/06:00am - - - - - SSE 6 7 3 4 - - -
17/05:30am - - - - - S 6 7 3 4 - - -
17/05:00am - - - - - SSW 9 11 5 6 - - -
17/04:30am - - - - - SSW 7 9 4 5 - - -
17/04:00am - - - - - S 7 9 4 5 - - -
17/03:30am - - - - - S 9 9 5 5 - - -
17/03:00am - - - - - S 9 11 5 6 - - -
17/02:30am - - - - - S 7 7 4 4 - - -
17/02:00am - - - - - SSW 9 9 5 5 - - -
17/01:30am - - - - - SSW 7 9 4 5 - - -
17/01:00am - - - - - S 6 7 3 4 - - -
17/12:30am - - - - - ESE 4 4 2 2 - - -
17/12:00am - - - - - E 6 6 3 3 - - -
 
Date/Time
EST
Temp
°C
App
Temp
°C
Dew
Point
°C
Rel
Hum
%
Delta-T
°C
Wind Press
QNH
hPa
Press
MSL
hPa
Rain since
9am
mm
Dir  Spd
km/h
Gust
km/h
Spd
kts
Gust
kts
16/11:30pm - - - - - ENE 2 6 1 3 - - -
16/11:00pm - - - - - NE 2 2 1 1 - - -
16/10:30pm - - - - - NNE 2 4 1 2 - - -
16/10:00pm - - - - - N 2 4 1 2 - - -
16/09:30pm - - - - - NNE 4 6 2 3 - - -
16/09:00pm - - - - - ENE 6 6 3 3 - - -
16/08:30pm - - - - - E 6 7 3 4 - - -
16/08:00pm - - - - - NE 7 9 4 5 - - -
16/07:30pm - - - - - ENE 9 13 5 7 - - -
16/07:00pm - - - - - ENE 7 7 4 4 - - -
16/06:30pm - - - - - E 11 13 6 7 - - -
16/06:00pm - - - - - E 13 15 7 8 - - -
16/05:30pm - - - - - E 15 17 8 9 - - -
16/05:00pm - - - - - E 17 20 9 11 - - -
16/04:30pm - - - - - E 17 19 9 10 - - -
16/04:00pm - - - - - E 13 17 7 9 - - -
16/03:30pm - - - - - ESE 11 15 6 8 - - -
16/03:00pm - - - - - E 7 9 4 5 - - -
16/02:30pm - - - - - N 7 11 4 6 - - -
16/02:00pm - - - - - NNW 6 9 3 5 - - -
16/01:30pm - - - - - NNW 7 11 4 6 - - -
16/01:00pm - - - - - W 2 4 1 2 - - -
16/12:30pm - - - - - ESE 2 6 1 3 - - -
16/12:00pm - - - - - E 6 6 3 3 - - -
16/11:30am - - - - - S 6 9 3 5 - - -
16/11:00am - - - - - SSE 11 15 6 8 - - -
16/10:30am - - - - - SSE 15 19 8 10 - - -
16/10:00am - - - - - SSE 15 20 8 11 - - -
16/09:30am - - - - - SSW 15 17 8 9 - - -
16/09:00am - - - - - S 15 19 8 10 - - -
16/08:30am - - - - - SSW 15 17 8 9 - - -
16/08:00am - - - - - SSW 17 20 9 11 - - -
16/07:30am - - - - - SSW 17 19 9 10 - - -
16/07:00am - - - - - SSW 13 15 7 8 - - -

Latest Capital City Observations: Canberra | Sydney | Melbourne | Brisbane | Adelaide | Perth | Hobart | Darwin

Other formats

Comma delimited format used in spreadsheet applications
http://www.bom.gov.au/fwo/IDQ60901/IDQ60901.94591.axf

JavaScript Object Notation format (JSON) in row-major order
http://www.bom.gov.au/fwo/IDQ60901/IDQ60901.94591.json

Data quality

Most of these data are generated automatically and are frequently updated. Quality checks on data are not normally performed. It is possible for incorrect values to appear. Refer to information at About Latest Weather Observations and please check the disclaimer before using these data.